createdAt,value
2022-10-20T00:01:21.111Z,100202.11
2022-10-20T00:03:51.189Z,100203.27
2022-10-20T00:06:25.134Z,100199.66
2022-10-20T00:08:54.849Z,100199.83
2022-10-20T00:11:33.537Z,100202.94
2022-10-20T00:14:03.380Z,100205.33
2022-10-20T00:16:35.653Z,100200.38
2022-10-20T00:19:04.134Z,100197.34
2022-10-20T00:21:32.469Z,100199.21
2022-10-20T00:24:03.780Z,100198.62
2022-10-20T00:26:34.691Z,100199.27
2022-10-20T00:29:04.537Z,100198.73
2022-10-20T00:31:33.736Z,100193.12
2022-10-20T00:34:01.547Z,100184.73
2022-10-20T00:36:29.320Z,100185.40
2022-10-20T00:39:03.009Z,100184.85
2022-10-20T00:41:31.987Z,100180.69
2022-10-20T00:44:02.804Z,100177.89
2022-10-20T00:46:40.207Z,100177.21
2022-10-20T00:49:18.234Z,100177.90
2022-10-20T00:51:46.718Z,100174.84
2022-10-20T00:54:19.631Z,100170.92
2022-10-20T00:56:49.239Z,100172.05
2022-10-20T00:59:25.010Z,100169.52
2022-10-20T01:01:53.871Z,100175.16
2022-10-20T01:04:21.958Z,100175.56
2022-10-20T01:06:50.943Z,100170.91
2022-10-20T01:09:19.327Z,100174.11
2022-10-20T01:12:19.901Z,100173.66
2022-10-20T01:15:17.662Z,100171.99
2022-10-20T01:18:02.563Z,100170.36
2022-10-20T01:20:33.132Z,100173.26
2022-10-20T01:23:39.296Z,100173.34
2022-10-20T01:26:25.704Z,100173.21
2022-10-20T01:29:13.236Z,100177.30
2022-10-20T01:32:15.601Z,100178.05
2022-10-20T01:35:05.323Z,100173.67
2022-10-20T01:38:21.027Z,100173.80
2022-10-20T01:40:59.757Z,100175.45
2022-10-20T01:43:33.734Z,100174.61
2022-10-20T01:46:03.845Z,100173.41
2022-10-20T01:48:34.933Z,100168.70
2022-10-20T01:51:03.887Z,100166.48
2022-10-20T01:53:31.624Z,100167.75
2022-10-20T01:56:01.868Z,100168.18
2022-10-20T01:58:51.956Z,100161.44
2022-10-20T02:01:36.360Z,100160.68
2022-10-20T02:04:08.905Z,100160.30
2022-10-20T02:06:45.122Z,100161.35
2022-10-20T02:09:21.131Z,100159.95
2022-10-20T02:11:58.873Z,100156.65
2022-10-20T02:14:27.368Z,100155.10
2022-10-20T02:17:02.517Z,100154.58
2022-10-20T02:19:35.954Z,100147.92
2022-10-20T02:22:06.003Z,100143.23
2022-10-20T02:24:39.155Z,100144.80
2022-10-20T02:27:29.436Z,100144.16
2022-10-20T02:30:02.464Z,100139.89
2022-10-20T02:32:33.557Z,100139.81
2022-10-20T02:35:06.791Z,100137.80
2022-10-20T02:37:35.227Z,100136.14
2022-10-20T02:40:04.753Z,100132.22
2022-10-20T02:42:32.521Z,100134.10
2022-10-20T02:45:00.650Z,100135.09
2022-10-20T02:47:28.433Z,100134.86
2022-10-20T02:49:56.161Z,100135.84
2022-10-20T02:52:23.919Z,100136.48
2022-10-20T02:54:51.621Z,100131.70
2022-10-20T02:57:19.510Z,100131.45
2022-10-20T02:59:47.254Z,100132.79
2022-10-20T03:02:15.023Z,100139.00
2022-10-20T03:04:42.743Z,100141.57
2022-10-20T03:07:12.327Z,100141.50
2022-10-20T03:09:40.248Z,100140.50
2022-10-20T03:12:08.464Z,100139.66
2022-10-20T03:14:36.343Z,100141.61
2022-10-20T03:17:04.598Z,100146.18
2022-10-20T03:19:32.780Z,100147.23
2022-10-20T03:22:00.523Z,100147.23
2022-10-20T03:24:28.686Z,100147.05
2022-10-20T03:26:56.413Z,100149.88
2022-10-20T03:29:24.126Z,100151.11
2022-10-20T03:31:52.287Z,100161.36
2022-10-20T03:34:22.591Z,100161.11
2022-10-20T03:36:51.055Z,100167.48
2022-10-20T03:39:18.927Z,100165.84
2022-10-20T03:41:46.942Z,100163.30
2022-10-20T03:44:16.018Z,100157.33
2022-10-20T03:46:44.241Z,100158.51
2022-10-20T03:49:12.164Z,100156.86
2022-10-20T03:51:40.319Z,100157.13
2022-10-20T03:54:08.617Z,100157.94
2022-10-20T03:56:37.293Z,100157.04
2022-10-20T03:59:05.720Z,100160.72
2022-10-20T04:01:35.107Z,100159.00
2022-10-20T04:04:03.145Z,100151.36
2022-10-20T04:06:32.027Z,100147.19
2022-10-20T04:08:59.816Z,100143.09
2022-10-20T04:11:29.005Z,100143.34
2022-10-20T04:13:57.167Z,100136.05
2022-10-20T04:16:25.258Z,100126.67
2022-10-20T04:18:53.319Z,100124.67
2022-10-20T04:21:21.286Z,100120.92
2022-10-20T04:23:49.121Z,100115.90
2022-10-20T04:26:17.064Z,100112.48
2022-10-20T04:28:45.654Z,100114.05
2022-10-20T04:31:14.101Z,100108.95
2022-10-20T04:33:42.055Z,100101.41
2022-10-20T04:36:12.729Z,100099.70
2022-10-20T04:38:40.692Z,100099.84
2022-10-20T04:41:08.473Z,100095.27
2022-10-20T04:43:36.479Z,100088.68
2022-10-20T04:46:08.467Z,100087.33
2022-10-20T04:48:37.579Z,100087.34
2022-10-20T04:51:11.399Z,100089.61
2022-10-20T04:53:40.002Z,100079.95
2022-10-20T04:56:10.723Z,100075.70
2022-10-20T04:58:38.714Z,100076.34
2022-10-20T05:01:08.933Z,100071.38
2022-10-20T05:03:37.371Z,100071.11
2022-10-20T05:06:12.350Z,100069.32
2022-10-20T05:08:42.209Z,100069.17
2022-10-20T05:11:11.560Z,100065.97
2022-10-20T05:13:39.760Z,100063.90
2022-10-20T05:16:09.110Z,100064.91
2022-10-20T05:18:37.725Z,100067.84
2022-10-20T05:21:10.551Z,100073.23
2022-10-20T05:23:39.976Z,100075.54
2022-10-20T05:26:16.859Z,100074.28
2022-10-20T05:28:47.151Z,100069.25
2022-10-20T05:31:16.701Z,100071.46
2022-10-20T05:33:53.375Z,100074.29
2022-10-20T05:36:26.603Z,100078.37
2022-10-20T05:38:55.793Z,100078.59
2022-10-20T05:41:26.468Z,100077.46
2022-10-20T05:44:00.150Z,100075.04
2022-10-20T05:46:29.131Z,100073.86
2022-10-20T05:48:59.515Z,100078.80
2022-10-20T05:51:30.836Z,100080.89
2022-10-20T05:53:59.821Z,100083.76
2022-10-20T05:56:28.864Z,100085.67
2022-10-20T05:58:57.883Z,100093.55
2022-10-20T06:01:38.897Z,100099.19
2022-10-20T06:04:08.818Z,100102.13
2022-10-20T06:06:36.570Z,100104.68
2022-10-20T06:09:08.087Z,100102.33
2022-10-20T06:11:39.422Z,100102.61
2022-10-20T06:14:11.608Z,100102.92
2022-10-20T06:16:40.446Z,100103.55
2022-10-20T06:19:08.239Z,100103.15
2022-10-20T06:21:37.880Z,100105.67
2022-10-20T06:24:07.336Z,100107.04
2022-10-20T06:26:36.762Z,100112.39
2022-10-20T06:29:07.099Z,100111.06
2022-10-20T06:31:45.191Z,100115.54
2022-10-20T06:34:21.175Z,100111.61
2022-10-20T06:36:51.465Z,100111.17
2022-10-20T06:39:21.805Z,100111.61
2022-10-20T06:41:54.370Z,100110.42
2022-10-20T06:44:24.188Z,100111.37
2022-10-20T06:46:52.762Z,100111.08
2022-10-20T06:49:22.922Z,100110.54
2022-10-20T06:51:51.417Z,100108.91
2022-10-20T06:54:19.519Z,100103.71
2022-10-20T06:56:47.429Z,100102.00
2022-10-20T06:59:15.414Z,100108.55
2022-10-20T07:01:44.884Z,100113.60
2022-10-20T07:04:15.900Z,100111.88
2022-10-20T07:06:45.856Z,100113.80
2022-10-20T07:09:20.891Z,100115.92
2022-10-20T07:11:52.776Z,100117.95
2022-10-20T07:14:21.016Z,100120.14
2022-10-20T07:16:48.860Z,100117.58
2022-10-20T07:19:16.816Z,100111.56
2022-10-20T07:21:45.901Z,100107.48
2022-10-20T07:24:15.799Z,100103.98
2022-10-20T07:26:43.666Z,100105.36
2022-10-20T07:29:13.062Z,100102.31
2022-10-20T07:31:46.705Z,100094.37
2022-10-20T07:34:30.984Z,100086.73
2022-10-20T07:36:58.893Z,100082.01
2022-10-20T07:39:27.216Z,100083.19
2022-10-20T07:41:55.162Z,100084.82
2022-10-20T07:44:23.090Z,100085.44
2022-10-20T07:46:51.556Z,100085.02
2022-10-20T07:52:07.766Z,100079.95
2022-10-20T07:54:36.353Z,100078.61
2022-10-20T07:57:04.253Z,100075.02
2022-10-20T07:59:32.092Z,100077.23
2022-10-20T08:02:00.354Z,100080.27
2022-10-20T08:04:31.645Z,100084.75
2022-10-20T08:07:00.551Z,100082.91
2022-10-20T08:09:28.368Z,100080.65
2022-10-20T08:11:56.350Z,100074.42
2022-10-20T08:14:27.296Z,100073.72
2022-10-20T08:17:04.399Z,100076.79
2022-10-20T08:19:34.331Z,100072.81
2022-10-20T08:22:02.088Z,100069.80
2022-10-20T08:24:30.856Z,100062.23
2022-10-20T08:27:00.753Z,100060.14
2022-10-20T08:29:28.629Z,100061.40
2022-10-20T08:31:56.728Z,100056.96
2022-10-20T08:34:24.552Z,100052.55
2022-10-20T08:36:52.344Z,100049.80
2022-10-20T08:39:20.471Z,100049.77
2022-10-20T08:44:44.667Z,100047.67
2022-10-20T08:47:30.747Z,100048.52
2022-10-20T08:50:03.257Z,100050.35
2022-10-20T08:52:31.358Z,100044.67
2022-10-20T08:54:59.768Z,100045.59
2022-10-20T08:57:33.448Z,100049.69
2022-10-20T09:00:22.612Z,100042.48
2022-10-20T09:02:51.729Z,100041.98
2022-10-20T09:05:25.281Z,100038.62
2022-10-20T09:07:54.881Z,100035.20
2022-10-20T09:10:35.498Z,100031.66
2022-10-20T09:13:11.543Z,100032.31
2022-10-20T09:15:40.127Z,100030.61
2022-10-20T09:18:14.201Z,100028.71
2022-10-20T09:20:59.290Z,100026.87
2022-10-20T09:23:46.325Z,100022.66
2022-10-20T09:26:37.404Z,100019.05
2022-10-20T09:29:15.136Z,100018.98
2022-10-20T09:31:50.034Z,100019.86
2022-10-20T09:34:34.520Z,100019.09
2022-10-20T09:37:13.312Z,100019.77
2022-10-20T09:39:50.202Z,100022.19
2022-10-20T09:42:30.337Z,100018.87
2022-10-20T09:45:06.374Z,100016.52
2022-10-20T09:47:35.013Z,100008.02
2022-10-20T09:50:08.396Z,100007.95
2022-10-20T09:52:47.774Z,100002.80
2022-10-20T09:55:33.481Z,99998.92
2022-10-20T09:58:05.053Z,99996.41
2022-10-20T10:00:44.111Z,99994.48
2022-10-20T10:03:21.570Z,99993.42
2022-10-20T10:05:53.846Z,99984.94
2022-10-20T10:08:24.964Z,99982.14
2022-10-20T10:11:02.297Z,99980.73
2022-10-20T10:13:37.718Z,99977.54
2022-10-20T10:16:09.504Z,99973.55
2022-10-20T10:18:38.961Z,99974.40
2022-10-20T10:21:10.593Z,99967.30
2022-10-20T10:23:55.548Z,99963.80
2022-10-20T10:26:48.564Z,99964.34
2022-10-20T10:29:37.560Z,99958.50
2022-10-20T10:32:29.689Z,99956.86
2022-10-20T10:35:12.950Z,99950.33
2022-10-20T10:37:44.786Z,99952.31
2022-10-20T10:40:19.948Z,99951.38
2022-10-20T10:43:29.615Z,99950.67
2022-10-20T10:46:11.925Z,99942.41
2022-10-20T10:49:08.451Z,99938.51
2022-10-20T10:52:08.424Z,99936.84
2022-10-20T10:54:58.378Z,99931.87
2022-10-20T10:57:45.995Z,99924.51
2022-10-20T11:00:25.504Z,99920.08
2022-10-20T11:03:04.146Z,99923.84
2022-10-20T11:06:00.245Z,99920.58
2022-10-20T11:08:56.992Z,99914.73
2022-10-20T11:12:11.297Z,99908.28
2022-10-20T11:14:59.432Z,99902.67
2022-10-20T11:17:30.116Z,99896.02
2022-10-20T11:20:17.595Z,99888.36
2022-10-20T11:23:21.920Z,99883.40
2022-10-20T11:26:05.449Z,99875.42
2022-10-20T11:28:44.410Z,99874.64
2022-10-20T11:31:45.626Z,99869.13
2022-10-20T11:34:21.381Z,99863.62
2022-10-20T11:37:02.571Z,99855.16
2022-10-20T11:39:42.468Z,99851.27
2022-10-20T11:42:19.323Z,99849.34
2022-10-20T11:44:48.558Z,99848.53
2022-10-20T11:47:21.398Z,99848.30
2022-10-20T11:49:49.366Z,99842.55
2022-10-20T11:52:55.744Z,99837.78
2022-10-20T11:55:32.742Z,99832.33
2022-10-20T11:58:26.657Z,99828.66
2022-10-20T12:01:10.280Z,99824.14
2022-10-20T12:04:25.350Z,99819.63
2022-10-20T12:07:35.454Z,99818.41
2022-10-20T12:10:36.949Z,99814.94
2022-10-20T12:13:24.944Z,99811.99
2022-10-20T12:15:53.900Z,99810.42
2022-10-20T12:18:32.256Z,99807.11
2022-10-20T12:21:03.550Z,99805.63
2022-10-20T12:23:47.078Z,99799.11
2022-10-20T12:26:33.448Z,99798.60
2022-10-20T12:29:22.404Z,99797.61
2022-10-20T12:32:34.556Z,99794.92
2022-10-20T12:35:10.492Z,99790.23
2022-10-20T12:37:42.314Z,99793.46
2022-10-20T12:40:15.373Z,99787.52
2022-10-20T12:42:49.389Z,99786.77
2022-10-20T12:45:24.096Z,99784.66
2022-10-20T12:47:59.569Z,99777.81
2022-10-20T12:50:35.803Z,99770.52
2022-10-20T12:53:26.875Z,99767.64
2022-10-20T12:56:01.288Z,99764.52
2022-10-20T12:58:30.892Z,99758.65
2022-10-20T13:01:00.023Z,99759.11
2022-10-20T13:03:48.473Z,99757.33
2022-10-20T13:06:30.853Z,99754.91
2022-10-20T13:09:10.499Z,99746.79
2022-10-20T13:11:38.755Z,99749.45
2022-10-20T13:14:22.918Z,99747.15
2022-10-20T13:16:57.877Z,99741.20
2022-10-20T13:19:48.892Z,99739.42
2022-10-20T13:22:43.174Z,99739.09
2022-10-20T13:25:20.594Z,99732.48
2022-10-20T13:27:49.835Z,99727.92
2022-10-20T13:30:22.968Z,99729.58
2022-10-20T13:33:33.123Z,99728.33
2022-10-20T13:36:38.709Z,99728.39
2022-10-20T13:39:39.703Z,99722.55
2022-10-20T13:42:26.553Z,99718.40
2022-10-20T13:45:25.889Z,99713.71
2022-10-20T13:48:11.914Z,99710.38
2022-10-20T13:50:44.188Z,99711.43
2022-10-20T13:53:30.510Z,99715.89
2022-10-20T13:56:08.415Z,99716.26
2022-10-20T13:58:36.204Z,99716.16
2022-10-20T14:01:13.844Z,99713.45
2022-10-20T14:03:44.990Z,99710.80
2022-10-20T14:06:46.993Z,99711.10
2022-10-20T14:09:21.770Z,99709.77
2022-10-20T14:11:58.967Z,99707.39
2022-10-20T14:14:30.108Z,99702.38
2022-10-20T14:17:01.152Z,99702.89
2022-10-20T14:19:30.818Z,99703.20
2022-10-20T14:22:10.245Z,99702.94
2022-10-20T14:24:43.095Z,99696.69
2022-10-20T14:27:30.875Z,99699.77
2022-10-20T14:30:00.456Z,99698.98
2022-10-20T14:32:31.606Z,99697.34
2022-10-20T14:35:26.157Z,99697.07
2022-10-20T14:37:58.666Z,99691.75
2022-10-20T14:40:31.419Z,99686.69
2022-10-20T14:43:04.773Z,99686.30
2022-10-20T14:48:12.904Z,99688.64
2022-10-20T14:50:42.212Z,99688.96
2022-10-20T14:53:27.429Z,99684.33
2022-10-20T14:55:57.495Z,99681.41
2022-10-20T14:58:36.727Z,99678.95
2022-10-20T15:01:38.251Z,99676.85
2022-10-20T15:04:23.757Z,99670.69
2022-10-20T15:07:05.535Z,99664.33
2022-10-20T15:09:46.365Z,99665.93
2022-10-20T15:12:33.767Z,99665.20
2022-10-20T15:15:20.998Z,99669.08
2022-10-20T15:17:54.976Z,99667.14
2022-10-20T15:20:40.794Z,99669.94
2022-10-20T15:23:16.144Z,99670.90
2022-10-20T15:25:54.151Z,99671.91
2022-10-20T15:28:40.445Z,99680.64
2022-10-20T15:31:19.400Z,99677.89
2022-10-20T15:33:48.001Z,99675.86
2022-10-20T15:36:21.133Z,99670.02
2022-10-20T15:38:50.649Z,99664.12
2022-10-20T15:41:23.702Z,99662.63
2022-10-20T15:43:52.436Z,99663.93
2022-10-20T15:46:22.090Z,99664.41
2022-10-20T15:48:49.947Z,99660.50
2022-10-20T15:51:23.735Z,99661.50
2022-10-20T15:53:51.768Z,99656.08
2022-10-20T15:56:20.455Z,99650.36
2022-10-20T15:58:50.289Z,99647.77
2022-10-20T16:01:21.422Z,99647.45
2022-10-20T16:03:52.147Z,99647.70
2022-10-20T16:06:21.388Z,99646.86
2022-10-20T16:08:50.624Z,99654.23
2022-10-20T16:11:21.515Z,99656.92
2022-10-20T16:13:49.379Z,99655.48
2022-10-20T16:16:19.735Z,99660.39
2022-10-20T16:18:47.924Z,99660.95
2022-10-20T16:21:17.103Z,99657.10
2022-10-20T16:23:45.203Z,99654.79
2022-10-20T16:26:14.197Z,99654.71
2022-10-20T16:28:43.236Z,99656.20
2022-10-20T16:31:14.339Z,99654.69
2022-10-20T16:33:43.046Z,99658.45
2022-10-20T16:36:15.001Z,99660.63
2022-10-20T16:38:44.037Z,99660.36
2022-10-20T16:41:15.562Z,99663.90
2022-10-20T16:43:45.858Z,99666.60
2022-10-20T16:46:16.371Z,99671.46
2022-10-20T16:48:47.537Z,99674.35
2022-10-20T16:51:16.721Z,99671.25
2022-10-20T16:53:45.532Z,99671.46
2022-10-20T16:56:16.794Z,99672.24
2022-10-20T16:58:48.889Z,99674.73
2022-10-20T17:01:19.319Z,99670.09
2022-10-20T17:03:52.388Z,99664.88
2022-10-20T17:06:25.318Z,99659.34
2022-10-20T17:08:54.413Z,99649.73
2022-10-20T17:11:27.780Z,99640.17
2022-10-20T17:13:56.706Z,99634.70
2022-10-20T17:16:28.875Z,99634.63
2022-10-20T17:19:01.477Z,99637.63
2022-10-20T17:21:31.268Z,99636.59
2022-10-20T17:23:59.774Z,99638.50
2022-10-20T17:26:31.419Z,99634.95
2022-10-20T17:29:01.733Z,99634.75
2022-10-20T17:31:30.188Z,99633.48
2022-10-20T17:33:59.183Z,99631.67
2022-10-20T17:36:29.027Z,99630.75
2022-10-20T17:39:04.725Z,99623.55
2022-10-20T17:41:34.659Z,99620.25
2022-10-20T17:44:08.452Z,99618.48
2022-10-20T17:46:36.406Z,99615.45
2022-10-20T17:49:06.003Z,99609.47
2022-10-20T17:51:35.047Z,99611.17
2022-10-20T17:54:04.190Z,99605.52
2022-10-20T17:56:36.356Z,99604.38
2022-10-20T17:59:06.575Z,99609.02
2022-10-20T18:01:41.289Z,99609.85
2022-10-20T18:04:14.966Z,99604.20
2022-10-20T18:06:44.525Z,99598.20
2022-10-20T18:09:15.262Z,99591.67
2022-10-20T18:11:46.639Z,99587.63
2022-10-20T18:14:14.440Z,99587.22
2022-10-20T18:16:44.094Z,99588.77
2022-10-20T18:19:15.551Z,99588.98
2022-10-20T18:21:43.690Z,99589.33
2022-10-20T18:24:14.280Z,99590.38
2022-10-20T18:26:44.077Z,99587.13
2022-10-20T18:29:12.728Z,99573.29
2022-10-20T18:31:43.949Z,99572.69
2022-10-20T18:34:20.600Z,99571.92
2022-10-20T18:36:50.486Z,99575.63
2022-10-20T18:39:18.243Z,99575.29
2022-10-20T18:41:46.920Z,99571.78
2022-10-20T18:44:18.130Z,99567.05
2022-10-20T18:46:47.924Z,99563.88
2022-10-20T18:49:19.731Z,99561.63
2022-10-20T18:51:48.908Z,99563.55
2022-10-20T18:54:18.681Z,99563.34
2022-10-20T18:56:47.993Z,99560.46
2022-10-20T18:59:17.355Z,99560.37
2022-10-20T19:01:48.397Z,99561.15
2022-10-20T19:04:16.790Z,99558.70
2022-10-20T19:06:47.750Z,99555.13
2022-10-20T19:09:19.367Z,99549.94
2022-10-20T19:14:24.078Z,99548.16
2022-10-20T19:16:54.182Z,99545.46
2022-10-20T19:19:22.912Z,99540.27
2022-10-20T19:21:50.741Z,99536.71
2022-10-20T19:24:22.515Z,99534.36
2022-10-20T19:27:24.656Z,99530.27
2022-10-20T19:29:42.603Z,99528.61
2022-10-20T19:32:12.371Z,99529.67
2022-10-20T19:34:41.167Z,99530.45
2022-10-20T19:37:09.608Z,99533.10
2022-10-20T19:39:41.570Z,99527.55
2022-10-20T19:42:11.266Z,99523.61
2022-10-20T19:44:40.019Z,99523.65
2022-10-20T19:47:08.983Z,99518.83
2022-10-20T19:49:37.830Z,99516.80
2022-10-20T19:52:06.738Z,99513.94
2022-10-20T19:54:35.125Z,99510.02
2022-10-20T19:57:03.525Z,99507.13
2022-10-20T19:59:33.969Z,99511.73
2022-10-20T20:02:03.267Z,99513.62
2022-10-20T20:04:31.507Z,99511.10
2022-10-20T20:07:02.133Z,99513.04
2022-10-20T20:09:30.945Z,99506.92
2022-10-20T20:12:00.233Z,99502.56
2022-10-20T20:14:28.082Z,99498.39
2022-10-20T20:16:55.979Z,99496.20
2022-10-20T20:19:23.783Z,99491.52
2022-10-20T20:21:56.282Z,99485.41
2022-10-20T20:24:25.652Z,99484.17
2022-10-20T20:26:53.445Z,99486.94
2022-10-20T20:29:22.137Z,99489.50
2022-10-20T20:31:50.262Z,99493.23
2022-10-20T20:34:19.391Z,99493.81
2022-10-20T20:36:47.791Z,99487.08
2022-10-20T20:39:15.633Z,99484.52
2022-10-20T20:41:43.534Z,99482.29
2022-10-20T20:44:11.494Z,99484.31
2022-10-20T20:46:40.122Z,99481.34
2022-10-20T20:49:07.822Z,99480.63
2022-10-20T20:51:36.191Z,99476.52
2022-10-20T20:54:04.208Z,99474.15
2022-10-20T20:56:32.429Z,99471.77
2022-10-20T20:59:01.656Z,99470.08
2022-10-20T21:01:34.036Z,99465.05
2022-10-20T21:04:04.317Z,99459.44
2022-10-20T21:06:49.316Z,99454.19
2022-10-20T21:09:22.600Z,99448.91
2022-10-20T21:11:50.642Z,99448.23
2022-10-20T21:14:19.092Z,99445.30
2022-10-20T21:16:47.297Z,99444.23
2022-10-20T21:19:15.308Z,99446.10
2022-10-20T21:22:06.543Z,99440.95
2022-10-20T21:24:34.398Z,99436.02
2022-10-20T21:27:03.413Z,99435.46
2022-10-20T21:29:31.430Z,99427.66
2022-10-20T21:31:59.193Z,99428.63
2022-10-20T21:34:27.128Z,99426.46
2022-10-20T21:36:54.885Z,99422.71
2022-10-20T21:39:23.405Z,99417.59
2022-10-20T21:41:51.706Z,99418.23
2022-10-20T21:44:20.621Z,99416.94
2022-10-20T21:46:50.154Z,99411.57
2022-10-20T21:49:20.314Z,99412.13
2022-10-20T21:51:52.400Z,99410.12
2022-10-20T21:54:24.048Z,99408.39
2022-10-20T21:56:52.656Z,99412.29
2022-10-20T21:59:21.900Z,99407.54
2022-10-20T22:01:51.527Z,99397.61
2022-10-20T22:04:21.573Z,99392.09
2022-10-20T22:06:49.645Z,99393.81
2022-10-20T22:09:18.653Z,99391.73
2022-10-20T22:11:51.644Z,99385.05
2022-10-20T22:14:19.688Z,99378.66
2022-10-20T22:16:47.700Z,99375.52
2022-10-20T22:19:18.939Z,99374.91
2022-10-20T22:21:48.261Z,99373.09
2022-10-20T22:24:18.829Z,99365.52
2022-10-20T22:26:48.061Z,99367.65
2022-10-20T22:29:15.783Z,99366.64
2022-10-20T22:31:43.510Z,99360.20
2022-10-20T22:34:11.508Z,99361.13
2022-10-20T22:36:39.801Z,99353.44
2022-10-20T22:39:08.134Z,99348.88
2022-10-20T22:41:36.692Z,99346.69
2022-10-20T22:44:05.830Z,99346.73
2022-10-20T22:46:33.752Z,99345.65
2022-10-20T22:49:01.856Z,99343.52
2022-10-20T22:51:29.703Z,99352.82
2022-10-20T22:53:57.505Z,99352.40
2022-10-20T22:56:25.517Z,99348.14
2022-10-20T22:58:54.470Z,99349.31
2022-10-20T23:01:24.048Z,99348.60
2022-10-20T23:03:52.222Z,99341.98
2022-10-20T23:06:24.014Z,99341.64
2022-10-20T23:08:54.897Z,99344.30
2022-10-20T23:11:24.638Z,99349.22
2022-10-20T23:13:54.010Z,99357.31
2022-10-20T23:16:21.987Z,99362.13
2022-10-20T23:18:50.183Z,99361.09
2022-10-20T23:21:18.309Z,99347.30
2022-10-20T23:23:46.950Z,99342.98
2022-10-20T23:26:15.794Z,99338.71
2022-10-20T23:28:43.523Z,99335.35
2022-10-20T23:31:16.867Z,99334.96
2022-10-20T23:33:46.181Z,99334.04
2022-10-20T23:36:15.978Z,99329.58
2022-10-20T23:38:44.405Z,99326.00
2022-10-20T23:41:12.591Z,99322.89
2022-10-20T23:43:41.048Z,99322.45
2022-10-20T23:46:09.827Z,99324.48
2022-10-20T23:48:38.926Z,99320.55
2022-10-20T23:51:08.259Z,99318.50
2022-10-20T23:53:37.496Z,99310.94
2022-10-20T23:56:05.694Z,99302.95
2022-10-20T23:58:34.239Z,99299.98
